Item Display Status Humidity-temperature Sensor

Elevation Above Sea Level: 3 m

 

Deployed Sensor

  • Serial Number: 20282659
  • NDBC Property Number: 42605
  • Start Date: 5/22/2019 (12:19:45 Z)
  • End Date: 3/20/2020 (17:45:00 Z)
Relative Humidity [%]     6 entries per hour
Showing data from 3/20/2020 (17:40:00 Z) to 3/19/2020 (00:00:01 Z)
Previous Next [ Day | 3-Days | 7-Days ]
First Last
Prev [ Day | 3-Days | 7-Days ] Next
First Last

Start Time:     :
End Time:     :     
Time (in GMT) :00 :50 :40 :30 :20 :10
Previous Next [ Day | 3-Days | 7-Days ]
First Last
Prev [ Day | 3-Days | 7-Days ] Next
First Last


123 => good data
MM => data is determined as missing
-- => data not received/configured
Back to Top Back to Top
3/20/2020 18:00 to 17:10 -- -- 97.57 96.47 97.26 96.80
3/20/2020 17:00 to 16:10 97.20 97.05 97.07 97.28 96.91 96.62
3/20/2020 16:00 to 15:10 95.40 95.05 95.05 96.16 97.57 98.47
3/20/2020 15:00 to 14:10 98.76 98.23 97.61 94.95 93.81 91.38
3/20/2020 14:00 to 13:10 92.08 91.85 91.52 91.30 92.49 91.94
3/20/2020 13:00 to 12:10 91.75 91.26 90.93 91.40 91.07 91.75
3/20/2020 12:00 to 11:10 92.39 92.29 92.02 91.73 91.30 91.09
3/20/2020 11:00 to 10:10 91.34 92.41 91.85 86.76 86.86 89.17
3/20/2020 10:00 to 9:10 90.76 92.14 92.23 92.41 93.94 94.00
3/20/2020 09:00 to 8:10 94.41 95.07 93.81 90.95 92.02 93.90
3/20/2020 08:00 to 7:10 94.49 91.92 91.07 91.87 90.70 90.10
3/20/2020 07:00 to 6:10 90.08 90.04 91.28 96.04 97.88 98.68
3/20/2020 06:00 to 5:10 99.32 99.01 98.23 97.18 96.12 96.16
3/20/2020 05:00 to 4:10 95.50 93.46 89.01 88.97 88.47 87.87
3/20/2020 04:00 to 3:10 89.38 88.78 88.74 88.47 88.45 87.73
3/20/2020 03:00 to 2:10 87.21 88.33 88.33 87.63 87.63 87.94
3/20/2020 02:00 to 1:10 87.50 87.05 87.61 87.11 86.70 87.92
3/20/2020 01:00 to 0:10 87.11 87.65 87.77 88.31 88.43 88.91
3/20/2020 00:00 to 23:10 88.64 88.47 89.38 90.12 89.92 89.87
3/19/2020 23:00 to 22:10 90.10 90.25 90.43 89.63 89.44 88.74
3/19/2020 22:00 to 21:10 89.01 88.43 88.25 87.96 87.03 87.63
3/19/2020 21:00 to 20:10 89.94 87.81 88.31 89.26 88.29 88.93
3/19/2020 20:00 to 19:10 88.78 88.14 87.63 88.39 88.00 88.33
3/19/2020 19:00 to 18:10 87.92 87.61 86.78 87.50 87.36 87.34
3/19/2020 18:00 to 17:10 86.99 86.29 86.22 86.51 87.52 88.64
3/19/2020 17:00 to 16:10 88.43 87.54 87.32 88.33 87.03 86.43
3/19/2020 16:00 to 15:10 87.75 87.40 89.13 88.45 87.94 88.93
3/19/2020 15:00 to 14:10 88.08 88.93 88.58 88.35 89.13 89.19
3/19/2020 14:00 to 13:10 89.30 90.31 91.40 91.67 91.46 87.61
3/19/2020 13:00 to 12:10 89.19 88.45 88.93 88.22 89.07 89.46
3/19/2020 12:00 to 11:10 91.15 91.15 92.86 91.79 91.59 92.18
3/19/2020 11:00 to 10:10 92.78 93.32 90.95 90.70 89.90 92.06
3/19/2020 10:00 to 9:10 89.13 89.19 89.01 88.20 87.94 87.65
3/19/2020 09:00 to 8:10 88.58 88.27 88.18 89.63 91.01 89.83
3/19/2020 08:00 to 7:10 87.81 87.38 88.58 88.39 88.00 87.50
3/19/2020 07:00 to 6:10 88.25 89.90 89.69 89.98 89.63 89.17
3/19/2020 06:00 to 5:10 87.50 87.48 87.23 87.13 87.75 86.33
3/19/2020 05:00 to 4:10 85.36 85.63 85.36 85.87 85.73 86.24
3/19/2020 04:00 to 3:10 85.36 85.65 85.30 85.36 84.78 84.06
3/19/2020 03:00 to 2:10 84.82 84.93 85.21 84.16 84.14 83.71
3/19/2020 02:00 to 1:10 82.84 82.70 82.14 83.32 83.30 84.04
3/19/2020 01:00 to 0:10 84.00 83.46 83.30 82.95 84.31 83.25

 

 

 

Air Temperature [°C]     6 entries per hour
Showing data from 3/20/2020 (17:40:00 Z) to 3/19/2020 (00:00:01 Z)
Previous Next [ Day | 3-Days | 7-Days ]
First Last
Prev [ Day | 3-Days | 7-Days ] Next
First Last

Start Time:     :
End Time:     :     
Time (in GMT) :00 :50 :40 :30 :20 :10
Previous Next [ Day | 3-Days | 7-Days ]
First Last
Prev [ Day | 3-Days | 7-Days ] Next
First Last


123 => good data
MM => data is determined as missing
-- => data not received/configured
Back to Top Back to Top
3/20/2020 18:00 to 17:10 -- -- 25.43 25.34 25.88 25.84
3/20/2020 17:00 to 16:10 25.74 25.66 25.67 25.55 25.75 25.34
3/20/2020 16:00 to 15:10 25.24 25.98 25.71 25.44 25.13 25.16
3/20/2020 15:00 to 14:10 25.25 25.30 25.31 25.33 25.14 25.83
3/20/2020 14:00 to 13:10 26.57 26.44 26.46 26.43 26.45 26.49
3/20/2020 13:00 to 12:10 26.49 26.45 26.49 26.50 26.52 26.36
3/20/2020 12:00 to 11:10 26.31 26.27 26.28 26.30 26.30 26.23
3/20/2020 11:00 to 10:10 26.18 26.12 26.34 26.65 26.56 26.24
3/20/2020 10:00 to 9:10 26.04 26.03 26.03 26.27 25.97 25.84
3/20/2020 09:00 to 8:10 25.81 25.67 25.57 26.40 26.14 26.09
3/20/2020 08:00 to 7:10 26.21 26.72 26.70 26.59 26.83 26.89
3/20/2020 07:00 to 6:10 26.78 26.80 26.50 25.94 25.68 25.40
3/20/2020 06:00 to 5:10 25.37 25.40 25.38 25.49 25.49 25.53
3/20/2020 05:00 to 4:10 25.31 26.05 27.11 27.06 27.23 27.07
3/20/2020 04:00 to 3:10 27.13 27.07 27.15 27.16 27.18 27.15
3/20/2020 03:00 to 2:10 27.20 27.21 27.19 27.13 27.17 27.23
3/20/2020 02:00 to 1:10 27.13 27.20 27.21 27.17 27.11 27.14
3/20/2020 01:00 to 0:10 27.14 27.10 27.15 27.20 27.12 27.06
3/20/2020 00:00 to 23:10 27.09 26.95 27.02 27.08 26.95 26.97
3/19/2020 23:00 to 22:10 26.87 26.86 26.77 26.73 26.69 26.64
3/19/2020 22:00 to 21:10 26.75 26.76 26.81 26.90 26.78 26.79
3/19/2020 21:00 to 20:10 26.80 26.92 26.84 27.02 26.93 26.95
3/19/2020 20:00 to 19:10 27.02 27.01 27.01 27.07 27.09 27.10
3/19/2020 19:00 to 18:10 27.04 27.08 27.13 27.04 27.04 27.09
3/19/2020 18:00 to 17:10 27.15 27.22 27.19 27.31 27.04 27.00
3/19/2020 17:00 to 16:10 26.95 27.21 27.19 26.87 27.21 27.11
3/19/2020 16:00 to 15:10 27.04 26.91 26.91 26.88 26.75 26.72
3/19/2020 15:00 to 14:10 26.83 26.76 26.82 26.75 26.74 26.74
3/19/2020 14:00 to 13:10 26.79 26.63 26.44 26.34 26.27 26.89
3/19/2020 13:00 to 12:10 26.78 26.67 26.72 26.93 26.79 26.76
3/19/2020 12:00 to 11:10 26.74 26.51 26.15 26.59 26.41 26.45
3/19/2020 11:00 to 10:10 26.31 26.30 26.59 26.74 26.59 26.34
3/19/2020 10:00 to 9:10 27.08 26.88 26.81 26.90 26.92 26.81
3/19/2020 09:00 to 8:10 26.83 26.88 26.90 26.73 26.79 26.99
3/19/2020 08:00 to 7:10 27.13 26.93 27.08 26.97 27.11 26.99
3/19/2020 07:00 to 6:10 27.00 26.88 26.92 26.65 26.64 27.11
3/19/2020 06:00 to 5:10 27.09 27.02 27.18 26.97 26.91 27.08
3/19/2020 05:00 to 4:10 27.18 27.06 27.09 27.12 27.03 27.09
3/19/2020 04:00 to 3:10 27.17 27.09 27.24 27.19 27.13 27.17
3/19/2020 03:00 to 2:10 27.21 27.24 27.15 27.22 27.25 27.21
3/19/2020 02:00 to 1:10 27.17 27.22 27.20 27.20 27.23 27.18
3/19/2020 01:00 to 0:10 27.15 27.18 27.13 27.23 27.11 27.21